Portada
METAR-TAF:

METAR-TAF

Aeropuertos :

Aeropuerto Internacional Jinnah

Karachi, Pakistán

latitud: 24-54N, longitud: 067-08E, altitud: 21 m

Observación

El informe se hizo hace 13 minutos, a las 16:55 UTC
Viento calma
Temperatura 28°C
Humedad 66%
Presión 1011 hPa
Visibilidad: 6000 m

METAR: OPKC 171655Z 00000KT 6000 NSC 28/21 Q1011 NOSIG

Hora: 22:08 (17:08 UTC)

Pronóstico

El informe se hizo hace 4 horas y 38 minutos, a las 12:30 UTC
Pronóstico válido del 17 a las 15 UTC al 17 a las 24 UTC
Viento 5 kt del suroeste con ráfagas de 15 kt
Visibilidad: 6000 m
A partir de las 17 a las 1800 UTC
Viento 5 kt del oeste
Visibilidad: 5000 m
calima

TAF: OPKC 171230Z 1715/1724 23005G15KT 6000 NSC FM171800 26005KT 5000 HZ NSC

Observaciones y pronósticos meteorológicos de más de 4000 aeropuertos (mensajes METAR y TAF).

Los puntos amarillos y rojos representan las estaciones disponibles.

Ponga el ratón en el punto deseado para ver el nombre de la estación.

Haga clic para ver las observaciones y los pronósticos meteorológicos.

Para cambiar el mapa : haga clic en los botones verdes con una cruz de color negro para hacer un zoom, en el botón verde con un guión para alejar o en las flechas verdes para mapas adyacentes.


METAR-TAF: